Aeroporto :
LOGIN :

Iscrizione | Disclaimer

   EN    FR    IT 

 










Sommario :    VFR   VFR Marginale   IFR   IFR Intensivo   IFR Molto Intensivo
Visibilità : 
Base nubi : 
>= 8 km
>= 3000ft
5 / 8 km
1000 / 3000 ft
1500m / 5 km
500 / 1000 ft
800 / 1500m
200 / 500 ft
< 800m
< 200 ft
Simboli :   Temporali  Nebbia  Neve Forte  Precipitazioni Forti  Vento > 20 kt
SIGMETs :   Varie  Temporali  Ghiacco  Turbolenza  Onda orograficha  Ceneri Vulcaniche







- Altitudine del aeroporto : 309 ft
- Codice IATA : FNI
- Carte del aeroporto


LFTW - Nîmes Garons

ULTIMO METAR :
  • 210500Z AUTO 28005KT CAVOK 12/08 Q1012 BECMG 34010KT

METARs OBSOLETI :
  • 210430Z AUTO 28005KT CAVOK 12/08 Q1012 BECMG 34010KT
  • 210400Z AUTO 28005KT CAVOK 11/08 Q1012 BECMG 34010KT
  • 210330Z AUTO 29006KT CAVOK 12/08 Q1012 NOSIG
  • 210300Z AUTO 31006KT CAVOK 12/08 Q1012 NOSIG
  • 210230Z AUTO 31006KT CAVOK 12/08 Q1012

TAF TAF LFTW
Valido dal 21 a 03 ore il 22 a 03 ore UTC


210200Z 2103/2203 34010KT CAVOK
TEMPO 2109/2119 35015G25KT
Nessun NOTAM noto per questo aeroporto.
1 SIGMET conosciuto per la FIR Marseille (LFMM) :
 
Forte onda orograficha
LFMM SIGMET 1 VALID 210400/210800 LFPW
LFMM MARSEILLE FIR/UIR SEV MTW FCST E OF E00900 SFC/FL100 STNR NC=



MetMap, La meteo Aeronautica in un colpo d'occhio ! - Copyright ORBIFLY Dicembre 2007 - Disclaimer

ORBIFLY MET'MAP TEAM :

Programmazione e sviluppo : Alexandra Zaïnal
Concezione e sviluppo : Baudouin d'Aumeries
Co-Programmazione e sviluppo : Marc-Olivier Méhu
Supporto tecnico e logistico : Manuel Goepfert
Aiuto per la traduzione : Arnaldo La Scala

Contatto : metmap@orbifly.com




FONTI E CREDITI :

   NOAA